Latest Coastal Weather Observations for Burnie Port

IDT60701

Issued at 1:22 pm EDT Thursday 19 January 2017 (issued every 10 minutes, with the page automatically refreshed every 10 minutes)

About coastal observations | Map of coastal stations | Coastal observations for TAS | Marine services | Other Formats
Station Details ID: 091344 Name: BURNIE NTC AWS Lat: -41.05 Lon: 145.91 Height: 0.0 m
Data from the previous 72 hours. | See also: Recent months for locations in Tasmania
Date/Time
EDT
Temp
°C
Wind Pressure Rain since
9am
mm
Weather Cloud Vis
km
Sea
Height
m
Swell
Dir  Spd
kts
Gust
kts
hPa Trend Height
m
Period
s
Dir
19/01:00pm - E 11 14 1014.8 - - - - - - - - -
19/12:30pm - E 12 14 1015.2 - - - - - - - - -
19/12:00pm - E 13 16 1015.4 - - - - - - - - -
19/11:30am - ESE 13 15 1015.5 - - - - - - - - -
19/11:00am - ESE 13 16 1015.8 - - - - - - - - -
19/10:30am - ESE 12 15 1016.1 - - - - - - - - -
19/10:00am - ESE 13 17 1015.9 - - - - - - - - -
19/09:30am - SE 9 13 1016.0 - - - - - - - - -
19/09:00am - SSE 9 11 1016.0 - - - - - - - - -
19/08:30am - S 7 9 1016.2 - - - - - - - - -
19/08:00am - S 8 10 1016.3 - - - - - - - - -
19/07:30am - S 9 11 1016.1 - - - - - - - - -
19/07:00am - SSE 6 10 1015.8 - - - - - - - - -
19/06:30am - S 13 16 1015.5 - - - - - - - - -
19/06:00am - S 12 15 1015.4 - - - - - - - - -
19/05:30am - S 10 12 1015.4 - - - - - - - - -
19/05:00am - S 10 12 1015.1 - - - - - - - - -
19/04:30am - S 10 12 1014.9 - - - - - - - - -
19/04:00am - SSW 6 8 1015.2 - - - - - - - - -
19/03:30am - SSW 7 9 1015.3 - - - - - - - - -
19/03:00am - S 7 9 1015.4 - - - - - - - - -
19/02:30am - SSW 5 8 1015.5 - - - - - - - - -
19/02:00am - SE 6 9 1015.7 - - - - - - - - -
19/01:30am - SSW 8 12 1015.8 - - - - - - - - -
19/01:00am - SSW 11 15 1015.5 - - - - - - - - -
19/12:30am - SSW 13 17 1015.5 - - - - - - - - -
19/12:00am - SSW 11 15 1015.4 - - - - - - - - -
 
Date/Time
EDT
Temp
°C
Wind Pressure Rain since
9am
mm
Weather Cloud Vis
km
Sea
Height
m
Swell
Dir  Spd
kts
Gust
kts
hPa Trend Height
m
Period
s
Dir
18/11:30pm - SSW 15 20 1015.2 - - - - - - - - -
18/11:00pm - SSW 17 22 1015.2 - - - - - - - - -
18/10:30pm - SSW 14 21 1015.3 - - - - - - - - -
18/10:00pm - SSW 16 23 1015.2 - - - - - - - - -
18/09:30pm - SW 16 22 1015.2 - - - - - - - - -
18/09:03pm - SW 16 27 1014.9 - - - - - - - - -
18/09:00pm - SW 15 22 1014.9 - - - - - - - - -
18/08:30pm - SW 12 19 1014.7 - - - - - - - - -
18/08:00pm - SW 13 19 1014.5 - - - - - - - - -
18/07:30pm - SW 10 15 1014.1 - - - - - - - - -
18/07:00pm - SW 12 19 1013.8 - - - - - - - - -
18/06:30pm - WSW 12 19 1013.3 - - - - - - - - -
18/06:00pm - WSW 11 20 1013.1 - - - - - - - - -
18/05:30pm - SW 12 22 1012.8 - - - - - - - - -
18/05:00pm - SSW 15 23 1012.9 - - - - - - - - -
18/04:30pm - WSW 14 25 1012.6 - - - - - - - - -
18/04:00pm - SW 13 27 1012.4 - - - - - - - - -
18/03:30pm - WSW 13 24 1012.3 - - - - - - - - -
18/03:00pm - SSW 13 25 1012.3 - - - - - - - - -
18/02:42pm - SW 12 26 1012.1 - - - - - - - - -
18/02:30pm - SSW 12 20 1011.9 - - - - - - - - -
18/02:19pm - SSW 16 26 1012.0 - - - - - - - - -
18/02:11pm - SSW 15 26 1011.7 - - - - - - - - -
18/02:00pm - WSW 13 27 1011.7 - - - - - - - - -
18/01:30pm - SW 11 22 1011.6 - - - - - - - - -
18/01:00pm - WSW 15 29 1011.2 - - - - - - - - -
18/12:59pm - WSW 15 29 1011.3 - - - - - - - - -
18/12:30pm - SW 13 24 1011.0 - - - - - - - - -
18/12:00pm - SW 12 27 1011.0 - - - - - - - - -
18/11:48am - WSW 15 28 1010.7 - - - - - - - - -
18/11:30am - SW 12 22 1010.4 - - - - - - - - -
18/11:00am - SW 9 24 1009.9 - - - - - - - - -
18/10:30am - SW 11 21 1009.6 - - - - - - - - -
18/10:00am - WSW 11 25 1009.3 - - - - - - - - -
18/09:47am - SW 15 26 1009.2 - - - - - - - - -
18/09:30am - SW 9 21 1008.9 - - - - - - - - -
18/09:00am - WSW 10 25 1008.5 - - - - - - - - -
18/08:30am - WSW 13 21 1008.2 - - - - - - - - -
18/08:18am - WSW 15 25 1008.1 - - - - - - - - -
18/08:00am - WSW 13 29 1008.1 - - - - - - - - -
18/07:30am - WSW 10 21 1007.5 - - - - - - - - -
18/07:00am - WSW 7 15 1007.0 - - - - - - - - -
18/06:30am - W 10 20 1006.3 - - - - - - - - -
18/06:00am - W 7 15 1005.8 - - - - - - - - -
18/05:30am - WNW 8 12 1005.3 - - - - - - - - -
18/05:00am - WNW 8 13 1005.1 - - - - - - - - -
18/04:30am - WNW 7 12 1005.2 - - - - - - - - -
18/04:00am - W 8 14 1005.3 - - - - - - - - -
18/03:30am - WSW 8 15 1004.9 - - - - - - - - -
18/03:00am - WSW 10 17 1005.0 - - - - - - - - -
18/02:30am - WSW 12 22 1005.1 - - - - - - - - -
18/02:00am - WSW 7 14 1004.7 - - - - - - - - -
18/01:30am - W 8 15 1004.9 - - - - - - - - -
18/01:00am - W 7 11 1004.7 - - - - - - - - -
18/12:30am - WNW 7 11 1005.0 - - - - - - - - -
18/12:00am - W 8 13 1005.1 - - - - - - - - -
 
Date/Time
EDT
Temp
°C
Wind Pressure Rain since
9am
mm
Weather Cloud Vis
km
Sea
Height
m
Swell
Dir  Spd
kts
Gust
kts
hPa Trend Height
m
Period
s
Dir
17/11:30pm - WNW 7 11 1005.1 - - - - - - - - -
17/11:00pm - W 7 12 1005.5 - - - - - - - - -
17/10:30pm - W 6 10 1005.5 - - - - - - - - -
17/10:00pm - NW 10 14 1005.6 - - - - - - - - -
17/09:30pm - WNW 9 13 1005.2 - - - - - - - - -
17/09:00pm - NW 11 14 1004.3 - - - - - - - - -
17/08:30pm - WNW 7 11 1004.7 - - - - - - - - -
17/08:00pm - WNW 7 11 1004.2 - - - - - - - - -
17/07:30pm - NW 9 11 1003.9 - - - - - - - - -
17/07:00pm - WNW 10 15 1003.8 - - - - - - - - -
17/06:30pm - WNW 8 13 1003.4 - - - - - - - - -
17/06:00pm - NW 11 14 1003.3 - - - - - - - - -
17/05:30pm - NW 13 17 1003.9 - - - - - - - - -
17/05:00pm - NW 14 19 1003.9 - - - - - - - - -
17/04:30pm - NW 12 14 1004.1 - - - - - - - - -
17/04:00pm - NW 14 18 1004.1 - - - - - - - - -
17/03:30pm - NW 11 15 1004.0 - - - - - - - - -
17/03:00pm - NW 12 15 1004.4 - - - - - - - - -
17/02:30pm - NW 12 16 1004.7 - - - - - - - - -
17/02:00pm - NW 11 14 1004.9 - - - - - - - - -
17/01:30pm - NW 8 11 1005.5 - - - - - - - - -
17/01:00pm - NW 6 7 1005.6 - - - - - - - - -
17/12:30pm - NNW 8 9 1006.1 - - - - - - - - -
17/12:00pm - NNW 5 5 1005.9 - - - - - - - - -
17/11:30am - N 3 4 1006.2 - - - - - - - - -
17/11:00am - NNW 3 5 1006.8 - - - - - - - - -
17/10:30am - N 4 6 1007.2 - - - - - - - - -
17/10:00am - NNW 3 3 1006.8 - - - - - - - - -
17/09:30am - N 2 3 1006.8 - - - - - - - - -
17/09:00am - SE 4 5 1006.9 - - - - - - - - -
17/08:30am - SE 2 3 1007.0 - - - - - - - - -
17/08:00am - S 3 4 1007.2 - - - - - - - - -
17/07:30am - SSW 4 5 1007.6 - - - - - - - - -
17/07:00am - SSW 7 8 1007.3 - - - - - - - - -
17/06:30am - S 4 7 1007.1 - - - - - - - - -
17/06:00am - S 7 8 1007.0 - - - - - - - - -
17/05:30am - SSW 6 8 1006.9 - - - - - - - - -
17/05:00am - SSW 5 7 1006.9 - - - - - - - - -
17/04:30am - SW 4 6 1006.8 - - - - - - - - -
17/04:00am - S 5 6 1006.8 - - - - - - - - -
17/03:30am - W 2 4 1007.2 - - - - - - - - -
17/03:00am - W 3 5 1007.3 - - - - - - - - -
17/02:30am - WNW 3 5 1007.5 - - - - - - - - -
17/02:00am - WNW 4 6 1007.6 - - - - - - - - -
17/01:30am - NW 5 6 1008.0 - - - - - - - - -
17/01:00am - WNW 2 3 1007.8 - - - - - - - - -
17/12:30am - WNW 4 6 1008.2 - - - - - - - - -

Other Formats:

Comma delimited format used in spreadsheet applications
http://www.bom.gov.au/fwo/IDT60701/IDT60701.95963.axf

JavaScript Object Notation format (JSON) in row-major order
http://www.bom.gov.au/fwo/IDT60701/IDT60701.95963.json